createdAt,value
2018-06-01T00:01:28.885Z,99.90
2018-06-01T00:04:02.011Z,99.90
2018-06-01T00:06:35.235Z,99.90
2018-06-01T00:09:09.323Z,99.90
2018-06-01T00:11:42.477Z,99.90
2018-06-01T00:14:15.737Z,99.90
2018-06-01T00:16:49.678Z,99.90
2018-06-01T00:19:22.917Z,99.90
2018-06-01T00:21:55.933Z,99.90
2018-06-01T00:24:29.855Z,99.90
2018-06-01T00:27:03.067Z,99.90
2018-06-01T00:29:36.069Z,99.90
2018-06-01T00:32:10.076Z,99.90
2018-06-01T00:34:43.268Z,99.90
2018-06-01T00:37:16.507Z,99.90
2018-06-01T00:39:49.752Z,99.90
2018-06-01T00:42:22.887Z,99.90
2018-06-01T00:44:56.082Z,99.90
2018-06-01T00:47:29.180Z,99.90
2018-06-01T00:50:02.354Z,99.90
2018-06-01T00:52:35.555Z,99.90
2018-06-01T00:55:14.595Z,99.90
2018-06-01T00:57:47.585Z,99.90
2018-06-01T01:00:20.768Z,99.90
2018-06-01T01:02:53.970Z,99.90
2018-06-01T01:05:27.113Z,99.90
2018-06-01T01:08:00.284Z,99.90
2018-06-01T01:10:33.479Z,99.90
2018-06-01T01:13:06.571Z,99.90
2018-06-01T01:15:39.828Z,99.90
2018-06-01T01:18:12.871Z,99.90
2018-06-01T01:20:45.964Z,99.90
2018-06-01T01:23:19.147Z,99.90
2018-06-01T01:25:53.123Z,99.90
2018-06-01T01:28:26.312Z,99.90
2018-06-01T01:30:59.584Z,99.90
2018-06-01T01:33:32.851Z,99.90
2018-06-01T01:36:06.141Z,99.90
2018-06-01T01:38:40.107Z,99.90
2018-06-01T01:41:13.260Z,99.90
2018-06-01T01:43:46.487Z,99.90
2018-06-01T01:46:19.657Z,99.90
2018-06-01T01:48:52.803Z,99.90
2018-06-01T01:51:25.889Z,99.90
2018-06-01T01:53:59.136Z,99.90
2018-06-01T01:56:32.228Z,99.90
2018-06-01T01:59:05.432Z,99.90
2018-06-01T02:01:38.626Z,99.90
2018-06-01T02:04:11.822Z,99.90
2018-06-01T02:06:45.011Z,99.90
2018-06-01T02:09:18.348Z,99.90
2018-06-01T02:11:51.544Z,99.90
2018-06-01T02:14:25.534Z,99.90
2018-06-01T02:16:58.758Z,99.90
2018-06-01T02:19:31.893Z,99.90
2018-06-01T02:22:05.093Z,99.90
2018-06-01T02:24:38.096Z,99.90
2018-06-01T02:27:11.347Z,99.90
2018-06-01T02:29:44.486Z,99.90
2018-06-01T02:32:17.751Z,99.90
2018-06-01T02:34:50.968Z,99.90
2018-06-01T02:37:24.108Z,99.90
2018-06-01T02:39:57.320Z,99.90
2018-06-01T02:42:30.572Z,99.90
2018-06-01T02:45:03.632Z,99.90
2018-06-01T02:47:36.775Z,99.90
2018-06-01T02:53:14.297Z,99.90
2018-06-01T02:55:47.354Z,99.90
2018-06-01T02:58:20.557Z,99.90
2018-06-01T03:00:53.484Z,99.90
2018-06-01T03:03:26.455Z,99.90
2018-06-01T03:05:59.392Z,99.90
2018-06-01T03:08:32.436Z,99.90
2018-06-01T03:11:05.333Z,99.90
2018-06-01T03:13:38.320Z,99.90
2018-06-01T03:16:11.283Z,99.90
2018-06-01T03:18:44.375Z,99.90
2018-06-01T03:21:17.267Z,99.90
2018-06-01T03:23:50.952Z,99.90
2018-06-01T03:26:23.950Z,99.90
2018-06-01T03:28:57.635Z,99.90
2018-06-01T03:31:30.697Z,99.90
2018-06-01T03:34:03.837Z,99.90
2018-06-01T03:36:37.012Z,99.90
2018-06-01T03:39:10.965Z,99.90
2018-06-01T03:41:44.769Z,99.90
2018-06-01T03:44:17.961Z,99.90
2018-06-01T03:46:51.147Z,99.90
2018-06-01T03:49:24.235Z,99.90
2018-06-01T03:51:57.364Z,99.90
2018-06-01T03:54:30.351Z,99.90
2018-06-01T03:57:03.542Z,99.90
2018-06-01T03:59:36.531Z,99.90
2018-06-01T04:02:10.523Z,99.90
2018-06-01T04:04:43.763Z,99.90
2018-06-01T04:07:16.956Z,99.90
2018-06-01T04:09:50.153Z,99.90
2018-06-01T04:12:23.291Z,99.90
2018-06-01T04:14:56.540Z,99.90
2018-06-01T04:17:29.795Z,99.90
2018-06-01T04:20:02.762Z,99.90
2018-06-01T04:22:35.975Z,99.90
2018-06-01T04:25:09.128Z,99.90
2018-06-01T04:27:42.375Z,99.90
2018-06-01T04:30:15.540Z,99.90
2018-06-01T04:32:48.676Z,99.90
2018-06-01T04:35:21.856Z,99.90
2018-06-01T04:37:55.051Z,99.90
2018-06-01T04:40:28.273Z,99.90
2018-06-01T04:43:01.414Z,99.90
2018-06-01T04:45:34.621Z,99.90
2018-06-01T04:48:07.682Z,99.90
2018-06-01T04:50:40.837Z,99.90
2018-06-01T04:53:14.698Z,99.90
2018-06-01T04:55:47.866Z,99.90
2018-06-01T04:58:21.024Z,99.90
2018-06-01T05:00:54.185Z,99.90
2018-06-01T05:03:27.328Z,99.90
2018-06-01T05:06:01.225Z,99.90
2018-06-01T05:08:35.235Z,99.90
2018-06-01T05:11:08.428Z,99.90
2018-06-01T05:13:45.216Z,99.90
2018-06-01T05:16:19.008Z,99.90
2018-06-01T05:18:52.227Z,99.90
2018-06-01T05:21:25.460Z,99.90
2018-06-01T05:23:58.726Z,99.90
2018-06-01T05:26:31.902Z,99.90
2018-06-01T05:29:04.992Z,99.90
2018-06-01T05:31:39.004Z,99.90
2018-06-01T05:34:12.267Z,99.90
2018-06-01T05:36:45.486Z,99.90
2018-06-01T05:39:18.583Z,99.90
2018-06-01T05:41:52.270Z,99.90
2018-06-01T05:44:26.183Z,99.90
2018-06-01T05:47:00.211Z,99.90
2018-06-01T05:49:33.397Z,99.90
2018-06-01T05:52:06.601Z,99.90
2018-06-01T05:54:39.779Z,99.90
2018-06-01T05:57:12.985Z,99.90
2018-06-01T05:59:46.189Z,99.90
2018-06-01T06:02:19.201Z,99.90
2018-06-01T06:04:52.287Z,99.90
2018-06-01T06:07:25.509Z,99.90
2018-06-01T06:09:58.685Z,99.90
2018-06-01T06:12:31.886Z,99.90
2018-06-01T06:15:05.136Z,99.90
2018-06-01T06:17:38.353Z,99.90
2018-06-01T06:20:11.504Z,99.90
2018-06-01T06:22:44.709Z,99.90
2018-06-01T06:25:17.979Z,99.90
2018-06-01T06:27:51.182Z,99.90
2018-06-01T06:30:24.309Z,99.90
2018-06-01T06:32:57.447Z,99.90
2018-06-01T06:35:30.664Z,99.90
2018-06-01T06:38:04.593Z,99.90
2018-06-01T06:40:37.646Z,99.90
2018-06-01T06:43:10.872Z,99.90
2018-06-01T06:45:44.834Z,99.90
2018-06-01T06:48:17.911Z,99.90
2018-06-01T06:50:51.875Z,99.90
2018-06-01T06:53:25.849Z,99.90
2018-06-01T06:55:59.019Z,99.90
2018-06-01T06:58:32.259Z,99.90
2018-06-01T07:01:05.987Z,99.90
2018-06-01T07:03:39.104Z,99.90
2018-06-01T07:06:13.031Z,99.90
2018-06-01T07:08:47.040Z,99.90
2018-06-01T07:11:20.212Z,99.90
2018-06-01T07:13:53.629Z,99.90
2018-06-01T07:16:27.121Z,99.90
2018-06-01T07:19:00.392Z,99.90
2018-06-01T07:21:33.512Z,99.90
2018-06-01T07:24:06.604Z,99.90
2018-06-01T07:26:40.612Z,99.90
2018-06-01T07:29:13.765Z,99.90
2018-06-01T07:31:47.032Z,99.90
2018-06-01T07:34:20.152Z,99.90
2018-06-01T07:36:54.083Z,99.90
2018-06-01T07:39:27.351Z,99.90
2018-06-01T07:42:01.276Z,99.90
2018-06-01T07:44:34.418Z,99.90
2018-06-01T07:47:07.527Z,99.90
2018-06-01T07:49:40.670Z,99.90
2018-06-01T07:52:14.647Z,99.90
2018-06-01T07:54:47.872Z,99.90
2018-06-01T07:57:21.903Z,99.90
2018-06-01T07:59:55.134Z,99.90
2018-06-01T08:02:28.270Z,99.90
2018-06-01T08:05:01.483Z,99.90
2018-06-01T08:07:35.386Z,99.90
2018-06-01T08:10:08.540Z,99.90
2018-06-01T08:12:41.751Z,99.90
2018-06-01T08:15:14.924Z,99.90
2018-06-01T08:17:48.203Z,99.90
2018-06-01T08:20:21.369Z,99.90
2018-06-01T08:22:54.585Z,99.90
2018-06-01T08:25:27.776Z,99.90
2018-06-01T08:28:00.904Z,99.90
2018-06-01T08:30:34.089Z,99.90
2018-06-01T08:33:07.353Z,99.90
2018-06-01T08:35:40.427Z,99.90
2018-06-01T08:38:13.687Z,99.90
2018-06-01T08:40:46.859Z,99.90
2018-06-01T08:43:19.998Z,99.90
2018-06-01T08:45:53.211Z,99.90
2018-06-01T08:48:26.406Z,99.90
2018-06-01T08:50:59.576Z,99.90
2018-06-01T08:53:32.779Z,99.90
2018-06-01T08:56:05.950Z,99.90
2018-06-01T08:58:39.188Z,99.90
2018-06-01T09:01:12.450Z,99.90
2018-06-01T09:03:46.109Z,99.90
2018-06-01T09:06:19.220Z,99.90
2018-06-01T09:08:52.321Z,99.90
2018-06-01T09:11:25.455Z,99.90
2018-06-01T09:13:58.589Z,99.90
2018-06-01T09:16:31.716Z,99.90
2018-06-01T09:19:05.648Z,99.90
2018-06-01T09:21:38.892Z,99.90
2018-06-01T09:24:12.879Z,99.90
2018-06-01T09:26:45.892Z,99.90
2018-06-01T09:29:19.079Z,99.90
2018-06-01T09:31:52.137Z,99.90
2018-06-01T09:34:25.400Z,99.90
2018-06-01T09:36:58.393Z,99.90
2018-06-01T09:39:32.327Z,99.90
2018-06-01T09:42:06.356Z,99.90
2018-06-01T09:44:39.531Z,99.90
2018-06-01T09:47:12.747Z,99.90
2018-06-01T09:49:45.842Z,99.90
2018-06-01T09:52:18.924Z,99.90
2018-06-01T09:54:52.843Z,99.90
2018-06-01T09:57:26.695Z,99.90
2018-06-01T09:59:59.936Z,99.90
2018-06-01T10:02:33.905Z,99.90
2018-06-01T10:05:07.072Z,99.90
2018-06-01T10:07:40.319Z,99.90
2018-06-01T10:12:54.188Z,99.90
2018-06-01T10:15:27.457Z,99.90
2018-06-01T10:18:00.566Z,99.90
2018-06-01T10:20:34.662Z,99.90
2018-06-01T10:23:08.568Z,99.80
2018-06-01T10:25:41.750Z,99.50
2018-06-01T10:28:14.994Z,99.90
2018-06-01T10:30:48.964Z,98.40
2018-06-01T10:33:22.119Z,98.40
2018-06-01T10:35:55.261Z,99.90
2018-06-01T10:38:29.257Z,98.20
2018-06-01T10:41:03.300Z,97.30
2018-06-01T10:43:36.480Z,97.30
2018-06-01T10:46:10.501Z,97.40
2018-06-01T10:48:43.682Z,97.80
2018-06-01T10:51:16.819Z,96.90
2018-06-01T10:53:49.929Z,97.80
2018-06-01T10:56:23.116Z,98.30
2018-06-01T10:58:57.064Z,98.20
2018-06-01T11:01:30.196Z,98.20
2018-06-01T11:04:04.145Z,98.30
2018-06-01T11:06:37.439Z,98.20
2018-06-01T11:09:10.567Z,99.50
2018-06-01T11:11:43.759Z,98.50
2018-06-01T11:14:16.825Z,96.50
2018-06-01T11:16:50.043Z,96.20
2018-06-01T11:19:23.238Z,94.70
2018-06-01T11:21:56.426Z,93.50
2018-06-01T11:24:29.629Z,94.70
2018-06-01T11:27:02.859Z,95.10
2018-06-01T11:29:36.017Z,95.30
2018-06-01T11:32:09.219Z,94.60
2018-06-01T11:34:42.376Z,94.40
2018-06-01T11:37:15.434Z,94.50
2018-06-01T11:39:48.614Z,92.30
2018-06-01T11:42:21.843Z,92.10
2018-06-01T11:44:55.080Z,93.20
2018-06-01T11:47:28.250Z,93.20
2018-06-01T11:50:01.376Z,90.00
2018-06-01T11:52:34.564Z,89.90
2018-06-01T11:55:08.272Z,92.80
2018-06-01T11:57:41.415Z,92.70
2018-06-01T12:00:15.401Z,93.40
2018-06-01T12:02:48.621Z,93.30
2018-06-01T12:05:22.605Z,92.00
2018-06-01T12:07:55.826Z,92.10
2018-06-01T12:10:29.026Z,93.60
2018-06-01T12:13:02.098Z,92.00
2018-06-01T12:15:35.283Z,92.90
2018-06-01T12:18:08.483Z,91.20
2018-06-01T12:20:42.219Z,89.60
2018-06-01T12:23:15.296Z,89.60
2018-06-01T12:25:49.255Z,91.00
2018-06-01T12:28:22.494Z,90.90
2018-06-01T12:30:55.578Z,90.20
2018-06-01T12:33:28.715Z,90.10
2018-06-01T12:36:01.939Z,89.00
2018-06-01T12:38:35.128Z,88.80
2018-06-01T12:41:08.351Z,90.90
2018-06-01T12:43:41.587Z,87.30
2018-06-01T12:46:14.740Z,89.40
2018-06-01T12:48:47.863Z,91.60
2018-06-01T12:51:20.842Z,92.60
2018-06-01T12:53:54.119Z,93.00
2018-06-01T12:56:27.322Z,92.80
2018-06-01T12:59:00.500Z,92.20
2018-06-01T13:01:33.708Z,92.10
2018-06-01T13:04:06.823Z,92.80
2018-06-01T13:06:40.063Z,91.40
2018-06-01T13:09:13.180Z,92.10
2018-06-01T13:11:46.473Z,91.90
2018-06-01T13:14:19.638Z,89.60
2018-06-01T13:16:52.797Z,87.10
2018-06-01T13:19:26.047Z,84.30
2018-06-01T13:21:59.318Z,80.90
2018-06-01T13:24:32.488Z,78.70
2018-06-01T13:27:05.711Z,76.40
2018-06-01T13:29:38.988Z,77.10
2018-06-01T13:32:12.202Z,80.00
2018-06-01T13:34:46.155Z,80.20
2018-06-01T13:37:19.342Z,80.10
2018-06-01T13:39:52.537Z,85.20
2018-06-01T13:42:25.755Z,85.00
2018-06-01T13:44:58.659Z,83.20
2018-06-01T13:47:31.827Z,84.60
2018-06-01T13:50:05.018Z,81.60
2018-06-01T13:52:38.142Z,83.40
2018-06-01T13:55:11.254Z,78.10
2018-06-01T13:57:44.416Z,78.80
2018-06-01T14:00:18.375Z,80.70
2018-06-01T14:02:52.379Z,80.20
2018-06-01T14:05:26.398Z,81.60
2018-06-01T14:07:59.612Z,81.60
2018-06-01T14:10:32.975Z,80.20
2018-06-01T14:13:05.958Z,80.20
2018-06-01T14:15:39.074Z,77.00
2018-06-01T14:18:12.193Z,76.00
2018-06-01T14:20:46.203Z,75.50
2018-06-01T14:23:19.334Z,75.60
2018-06-01T14:25:52.403Z,79.20
2018-06-01T14:28:26.134Z,81.60
2018-06-01T14:30:59.163Z,81.50
2018-06-01T14:33:32.923Z,81.40
2018-06-01T14:36:06.847Z,79.40
2018-06-01T14:38:40.043Z,79.30
2018-06-01T14:41:13.268Z,78.00
2018-06-01T14:43:46.355Z,74.80
2018-06-01T14:46:19.562Z,74.30
2018-06-01T14:48:52.815Z,71.80
2018-06-01T14:51:26.020Z,75.10
2018-06-01T14:53:59.271Z,76.50
2018-06-01T14:56:32.423Z,74.20
2018-06-01T14:59:05.607Z,74.60
2018-06-01T15:01:38.794Z,74.50
2018-06-01T15:04:11.987Z,76.90
2018-06-01T15:06:45.133Z,82.20
2018-06-01T15:09:18.284Z,86.80
2018-06-01T15:11:51.391Z,88.60
2018-06-01T15:14:24.528Z,92.60
2018-06-01T15:16:57.715Z,97.00
2018-06-01T15:19:56.571Z,99.90
2018-06-01T15:22:31.230Z,99.90
2018-06-01T15:25:05.342Z,99.90
2018-06-01T15:27:39.396Z,99.90
2018-06-01T15:30:14.079Z,99.90
2018-06-01T15:32:47.989Z,99.90
2018-06-01T15:35:22.801Z,99.90
2018-06-01T15:37:56.881Z,99.90
2018-06-01T15:40:30.866Z,90.50
2018-06-01T15:43:04.869Z,89.50
2018-06-01T15:45:38.901Z,78.60
2018-06-01T15:48:12.878Z,69.10
2018-06-01T15:50:46.893Z,69.40
2018-06-01T15:53:20.965Z,74.00
2018-06-01T15:55:55.815Z,73.00
2018-06-01T15:58:30.433Z,73.50
2018-06-01T16:01:05.169Z,66.00
2018-06-01T16:03:39.070Z,65.80
2018-06-01T16:06:13.067Z,59.70
2018-06-01T16:08:47.211Z,59.50
2018-06-01T16:11:21.217Z,57.30
2018-06-01T16:13:55.270Z,57.20
2018-06-01T16:16:29.357Z,57.30
2018-06-01T16:19:03.344Z,54.30
2018-06-01T16:21:37.381Z,57.40
2018-06-01T16:24:11.396Z,57.70
2018-06-01T16:26:45.410Z,57.70
2018-06-01T16:29:19.369Z,57.10
2018-06-01T16:31:53.416Z,58.20
2018-06-01T16:34:27.504Z,57.40
2018-06-01T16:37:01.541Z,57.80
2018-06-01T16:39:35.536Z,57.60
2018-06-01T16:42:09.552Z,57.20
2018-06-01T16:44:43.640Z,57.00
2018-06-01T16:47:17.761Z,58.30
2018-06-01T16:49:51.869Z,60.90
2018-06-01T16:52:25.962Z,58.50
2018-06-01T16:54:59.908Z,58.50
2018-06-01T16:57:33.918Z,59.70
2018-06-01T17:00:07.939Z,60.00
2018-06-01T17:02:42.771Z,57.80
2018-06-01T17:05:16.690Z,57.80
2018-06-01T17:07:50.657Z,58.50
2018-06-01T17:10:24.677Z,58.40
2018-06-01T17:12:58.714Z,60.00
2018-06-01T17:15:32.630Z,59.70
2018-06-01T17:18:06.718Z,61.80
2018-06-01T17:20:40.789Z,68.30
2018-06-01T17:23:14.844Z,69.80
2018-06-01T17:25:49.682Z,74.00
2018-06-01T17:28:23.630Z,73.80
2018-06-01T17:30:57.621Z,74.00
2018-06-01T17:33:31.640Z,72.90
2018-06-01T17:36:05.700Z,73.10
2018-06-01T17:38:39.722Z,73.60
2018-06-01T17:41:14.522Z,77.80
2018-06-01T17:43:48.392Z,77.50
2018-06-01T17:46:22.466Z,77.70
2018-06-01T17:48:56.485Z,77.20
2018-06-01T17:51:30.489Z,77.60
2018-06-01T17:54:04.561Z,78.50
2018-06-01T17:56:38.625Z,75.40
2018-06-01T17:59:13.461Z,72.00
2018-06-01T18:01:48.101Z,68.00
2018-06-01T18:04:22.824Z,67.90
2018-06-01T18:06:57.552Z,68.90
2018-06-01T18:09:31.558Z,68.90
2018-06-01T18:12:05.466Z,70.50
2018-06-01T18:14:40.296Z,70.00
2018-06-01T18:17:14.279Z,70.00
2018-06-01T18:19:48.289Z,69.40
2018-06-01T18:22:22.357Z,70.80
2018-06-01T18:24:57.057Z,70.20
2018-06-01T18:27:30.967Z,70.20
2018-06-01T18:30:04.817Z,72.40
2018-06-01T18:32:39.505Z,77.60
2018-06-01T18:35:13.415Z,77.60
2018-06-01T18:37:47.397Z,77.70
2018-06-01T18:40:21.458Z,79.20
2018-06-01T18:42:55.622Z,79.70
2018-06-01T18:45:29.731Z,80.60
2018-06-01T18:48:03.799Z,82.30
2018-06-01T18:50:37.826Z,82.80
2018-06-01T18:53:11.814Z,84.10
2018-06-01T18:55:46.676Z,85.70
2018-06-01T18:58:20.757Z,85.70
2018-06-01T19:00:55.310Z,87.00
2018-06-01T19:03:29.247Z,88.40
2018-06-01T19:06:03.298Z,88.00
2018-06-01T19:08:37.309Z,89.30
2018-06-01T19:11:11.518Z,89.30
2018-06-01T19:13:45.483Z,90.30
2018-06-01T19:16:19.443Z,91.40
2018-06-01T19:18:55.506Z,92.40
2018-06-01T19:21:29.552Z,92.50
2018-06-01T19:24:04.408Z,92.70
2018-06-01T19:26:38.490Z,92.70
2018-06-01T19:29:12.590Z,92.50
2018-06-01T19:31:46.639Z,93.20
2018-06-01T19:34:21.409Z,94.60
2018-06-01T19:36:55.493Z,94.30
2018-06-01T19:39:29.642Z,94.30
2018-06-01T19:42:03.744Z,94.70
2018-06-01T19:44:37.838Z,94.40
2018-06-01T19:47:12.012Z,94.60
2018-06-01T19:49:46.185Z,95.20
2018-06-01T19:52:20.156Z,96.00
2018-06-01T19:54:54.257Z,97.60
2018-06-01T19:57:28.298Z,98.50
2018-06-01T20:00:02.691Z,99.10
2018-06-01T20:02:37.405Z,99.00
2018-06-01T20:05:11.583Z,98.30
2018-06-01T20:07:45.561Z,99.00
2018-06-01T20:10:20.413Z,99.20
2018-06-01T20:12:54.660Z,99.30
2018-06-01T20:15:29.037Z,99.30
2018-06-01T20:18:04.130Z,98.80
2018-06-01T20:20:38.292Z,98.80
2018-06-01T20:23:13.288Z,99.80
2018-06-01T20:25:47.169Z,99.40
2018-06-01T20:28:21.805Z,99.80
2018-06-01T20:30:57.811Z,99.50
2018-06-01T20:33:31.809Z,99.50
2018-06-01T20:36:05.889Z,99.30
2018-06-01T20:38:40.241Z,99.60
2018-06-01T20:41:14.902Z,99.90
2018-06-01T20:43:49.688Z,99.90
2018-06-01T20:46:26.029Z,99.90
2018-06-01T20:49:00.262Z,99.90
2018-06-01T20:51:34.459Z,99.90
2018-06-01T20:54:08.510Z,99.90
2018-06-01T20:56:42.503Z,99.90
2018-06-01T20:59:16.583Z,99.90
2018-06-01T21:01:50.728Z,99.90
2018-06-01T21:04:24.806Z,99.90
2018-06-01T21:06:58.953Z,99.90
2018-06-01T21:09:32.819Z,99.90
2018-06-01T21:12:07.706Z,99.90
2018-06-01T21:14:42.016Z,99.90
2018-06-01T21:17:16.057Z,99.90
2018-06-01T21:19:50.390Z,99.90
2018-06-01T21:22:24.463Z,99.90
2018-06-01T21:24:58.449Z,99.90
2018-06-01T21:27:32.597Z,99.90
2018-06-01T21:30:06.659Z,99.90
2018-06-01T21:32:40.729Z,99.90
2018-06-01T21:35:14.823Z,99.90
2018-06-01T21:37:49.182Z,99.90
2018-06-01T21:40:24.159Z,99.90
2018-06-01T21:42:58.361Z,99.90
2018-06-01T21:45:32.371Z,99.90
2018-06-01T21:48:07.245Z,99.90
2018-06-01T21:50:41.206Z,99.90
2018-06-01T21:53:15.310Z,99.90
2018-06-01T21:55:49.257Z,99.90
2018-06-01T21:58:23.593Z,99.90
2018-06-01T22:00:57.570Z,99.90
2018-06-01T22:03:32.411Z,99.90
2018-06-01T22:06:06.550Z,99.90
2018-06-01T22:08:40.712Z,99.90
2018-06-01T22:11:14.847Z,99.90
2018-06-01T22:13:48.807Z,99.90
2018-06-01T22:16:22.713Z,99.90
2018-06-01T22:18:57.051Z,99.90
2018-06-01T22:21:32.075Z,99.90
2018-06-01T22:24:06.120Z,99.90
2018-06-01T22:26:40.162Z,99.90
2018-06-01T22:29:14.278Z,99.90
2018-06-01T22:31:48.609Z,99.90
2018-06-01T22:34:22.517Z,99.90
2018-06-01T22:36:56.880Z,99.90
2018-06-01T22:39:30.908Z,99.90
2018-06-01T22:42:05.210Z,99.90
2018-06-01T22:44:39.298Z,99.90
2018-06-01T22:47:13.488Z,99.90
2018-06-01T22:49:47.755Z,99.90
2018-06-01T22:52:21.878Z,99.90
2018-06-01T22:54:56.019Z,99.90
2018-06-01T22:57:30.123Z,99.90
2018-06-01T23:00:04.037Z,99.90
2018-06-01T23:02:38.083Z,99.90
2018-06-01T23:05:12.340Z,99.90
2018-06-01T23:07:46.560Z,99.90
2018-06-01T23:10:20.583Z,99.90
2018-06-01T23:12:55.448Z,99.90
2018-06-01T23:15:29.341Z,99.90
2018-06-01T23:18:03.471Z,99.90
2018-06-01T23:20:37.405Z,99.90
2018-06-01T23:23:11.483Z,99.90
2018-06-01T23:25:46.347Z,99.90
2018-06-01T23:28:20.703Z,99.90
2018-06-01T23:30:55.036Z,99.90
2018-06-01T23:33:29.127Z,99.90
2018-06-01T23:36:03.265Z,99.90
2018-06-01T23:38:38.071Z,99.90
2018-06-01T23:41:12.246Z,99.90
2018-06-01T23:43:47.122Z,99.90
2018-06-01T23:46:21.053Z,99.90
2018-06-01T23:48:55.163Z,99.90
2018-06-01T23:51:29.253Z,99.90
2018-06-01T23:54:03.412Z,99.90
2018-06-01T23:56:37.551Z,99.90
2018-06-01T23:59:11.547Z,99.90
